createdAt,value
2019-02-16T00:00:17.405Z,14.13
2019-02-16T00:02:46.103Z,17.77
2019-02-16T00:05:19.854Z,17.60
2019-02-16T00:07:48.435Z,17.33
2019-02-16T00:10:17.078Z,16.77
2019-02-16T00:13:05.043Z,14.93
2019-02-16T00:15:33.840Z,18.43
2019-02-16T00:18:02.600Z,23.37
2019-02-16T00:20:31.178Z,17.23
2019-02-16T00:22:59.766Z,16.53
2019-02-16T00:25:28.557Z,20.60
2019-02-16T00:27:57.177Z,16.37
2019-02-16T00:30:25.880Z,22.20
2019-02-16T00:32:55.826Z,19.30
2019-02-16T00:35:24.934Z,17.17
2019-02-16T00:37:53.485Z,13.50
2019-02-16T00:40:22.062Z,12.97
2019-02-16T00:42:50.647Z,11.13
2019-02-16T00:45:19.238Z,13.97
2019-02-16T00:47:48.082Z,12.20
2019-02-16T00:50:16.982Z,14.07
2019-02-16T00:52:45.801Z,11.50
2019-02-16T00:55:14.464Z,12.30
2019-02-16T00:57:42.976Z,11.97
2019-02-16T01:00:12.875Z,12.37
2019-02-16T01:02:41.449Z,13.07
2019-02-16T01:05:10.282Z,14.13
2019-02-16T01:07:38.830Z,16.10
2019-02-16T01:10:08.765Z,12.53
2019-02-16T01:12:37.421Z,9.50
2019-02-16T01:15:08.330Z,13.37
2019-02-16T01:17:36.974Z,13.30
2019-02-16T01:20:08.601Z,12.07
2019-02-16T01:22:37.153Z,14.43
2019-02-16T01:25:06.580Z,15.50
2019-02-16T01:27:35.199Z,20.33
2019-02-16T01:30:04.985Z,19.00
2019-02-16T01:32:33.843Z,14.83
2019-02-16T01:35:02.671Z,12.63
2019-02-16T01:37:31.389Z,13.83
2019-02-16T01:40:00.011Z,11.80
2019-02-16T01:42:28.593Z,13.17
2019-02-16T01:44:57.135Z,13.33
2019-02-16T01:47:25.719Z,16.67
2019-02-16T01:49:54.290Z,13.73
2019-02-16T01:52:23.035Z,14.03
2019-02-16T01:54:51.742Z,12.80
2019-02-16T01:57:20.293Z,12.27
2019-02-16T01:59:48.878Z,15.03
2019-02-16T02:02:17.411Z,11.20
2019-02-16T02:04:45.954Z,13.03
2019-02-16T02:07:14.538Z,15.03
2019-02-16T02:09:43.096Z,14.30
2019-02-16T02:12:11.663Z,13.83
2019-02-16T02:14:40.230Z,13.30
2019-02-16T02:17:08.826Z,13.70
2019-02-16T02:19:56.751Z,13.03
2019-02-16T02:22:25.390Z,11.80
2019-02-16T02:24:54.178Z,13.77
2019-02-16T02:27:22.813Z,12.03
2019-02-16T02:29:51.401Z,12.93
2019-02-16T02:32:19.939Z,14.70
2019-02-16T02:34:48.701Z,14.70
2019-02-16T02:37:17.238Z,12.30
2019-02-16T02:39:45.836Z,12.97
2019-02-16T02:42:14.379Z,11.63
2019-02-16T02:44:43.474Z,12.20
2019-02-16T02:47:12.030Z,10.47
2019-02-16T02:49:40.726Z,10.83
2019-02-16T02:52:09.276Z,8.83
2019-02-16T02:54:37.806Z,10.73
2019-02-16T02:57:06.386Z,11.67
2019-02-16T02:59:34.896Z,13.20
2019-02-16T03:02:03.526Z,9.90
2019-02-16T03:04:32.193Z,8.70
2019-02-16T03:07:00.720Z,9.13
2019-02-16T03:09:29.209Z,11.23
2019-02-16T03:11:57.779Z,8.87
2019-02-16T03:14:26.602Z,7.67
2019-02-16T03:16:55.166Z,10.30
2019-02-16T03:19:23.773Z,13.40
2019-02-16T03:22:02.136Z,15.43
2019-02-16T03:24:22.750Z,9.77
2019-02-16T03:27:06.433Z,10.87
2019-02-16T03:29:43.885Z,7.50
2019-02-16T03:32:24.698Z,11.23
2019-02-16T03:35:08.306Z,9.93
2019-02-16T03:37:57.952Z,8.10
2019-02-16T03:40:26.781Z,10.67
2019-02-16T03:42:55.553Z,11.40
2019-02-16T03:45:24.187Z,11.17
2019-02-16T03:47:52.753Z,10.43
2019-02-16T03:50:21.409Z,10.60
2019-02-16T03:52:49.961Z,9.30
2019-02-16T03:55:18.872Z,10.10
2019-02-16T03:57:47.611Z,11.23
2019-02-16T04:00:16.186Z,8.60
2019-02-16T04:02:44.772Z,9.60
2019-02-16T04:05:13.430Z,11.83
2019-02-16T04:07:41.936Z,10.03
2019-02-16T04:10:10.479Z,10.57
2019-02-16T04:12:39.026Z,8.77
2019-02-16T04:15:07.722Z,10.87
2019-02-16T04:17:36.308Z,10.67
2019-02-16T04:20:06.904Z,9.37
2019-02-16T04:22:35.489Z,9.37
2019-02-16T04:25:04.363Z,8.43
2019-02-16T04:27:32.947Z,10.90
2019-02-16T04:30:01.431Z,9.53
2019-02-16T04:32:30.067Z,16.03
2019-02-16T04:34:58.617Z,12.27
2019-02-16T04:37:27.093Z,13.50
2019-02-16T04:39:55.736Z,10.57
2019-02-16T04:42:24.217Z,11.00
2019-02-16T04:44:52.771Z,14.63
2019-02-16T04:47:21.263Z,10.03
2019-02-16T04:49:49.874Z,10.13
2019-02-16T04:52:18.385Z,12.27
2019-02-16T04:54:46.965Z,10.57
2019-02-16T04:57:15.547Z,8.57
2019-02-16T04:59:44.154Z,8.97
2019-02-16T05:02:12.635Z,9.23
2019-02-16T05:04:41.342Z,11.50
2019-02-16T05:07:10.039Z,9.30
2019-02-16T05:09:38.592Z,12.60
2019-02-16T05:12:07.072Z,8.70
2019-02-16T05:14:35.585Z,6.93
2019-02-16T05:17:04.220Z,9.03
2019-02-16T05:19:32.695Z,8.57
2019-02-16T05:22:01.230Z,6.40
2019-02-16T05:24:29.794Z,8.30
2019-02-16T05:26:58.582Z,8.17
2019-02-16T05:29:27.545Z,7.83
2019-02-16T05:31:56.049Z,7.30
2019-02-16T05:34:24.576Z,6.70
2019-02-16T05:36:53.121Z,10.80
2019-02-16T05:39:30.686Z,8.17
2019-02-16T05:41:59.224Z,7.77
2019-02-16T05:44:27.870Z,7.90
2019-02-16T05:46:56.417Z,8.17
2019-02-16T05:49:24.980Z,6.27
2019-02-16T05:52:12.863Z,8.13
2019-02-16T05:54:41.438Z,9.87
2019-02-16T05:57:10.160Z,7.40
2019-02-16T05:59:38.693Z,8.67
2019-02-16T06:02:07.480Z,8.33
2019-02-16T06:04:36.134Z,7.23
2019-02-16T06:07:04.755Z,7.27
2019-02-16T06:09:33.336Z,9.60
2019-02-16T06:12:01.946Z,8.03
2019-02-16T06:14:49.849Z,8.47
2019-02-16T06:17:18.408Z,9.43
2019-02-16T06:19:47.081Z,7.50
2019-02-16T06:22:16.022Z,10.63
2019-02-16T06:24:44.593Z,10.90
2019-02-16T06:27:18.329Z,9.87
2019-02-16T06:29:46.978Z,9.17
2019-02-16T06:32:15.826Z,7.10
2019-02-16T06:34:44.288Z,9.23
2019-02-16T06:37:25.809Z,8.53
2019-02-16T06:39:54.265Z,8.17
2019-02-16T06:42:22.757Z,7.13
2019-02-16T06:44:51.280Z,6.97
2019-02-16T06:47:19.783Z,8.97
2019-02-16T06:49:48.240Z,8.13
2019-02-16T06:52:16.758Z,7.67
2019-02-16T06:54:45.383Z,7.27
2019-02-16T06:57:21.442Z,9.50
2019-02-16T06:59:50.018Z,9.20
2019-02-16T07:02:19.418Z,7.87
2019-02-16T07:04:48.193Z,12.70
2019-02-16T07:07:16.750Z,11.93
2019-02-16T07:09:45.259Z,8.63
2019-02-16T07:12:13.733Z,8.60
2019-02-16T07:14:42.316Z,7.90
2019-02-16T07:17:24.656Z,8.63
2019-02-16T07:19:54.026Z,9.00
2019-02-16T07:22:22.572Z,9.43
2019-02-16T07:24:51.129Z,10.83
2019-02-16T07:27:20.279Z,9.60
2019-02-16T07:29:48.786Z,9.87
2019-02-16T07:32:17.365Z,8.83
2019-02-16T07:34:45.955Z,10.17
2019-02-16T07:37:14.847Z,10.30
2019-02-16T07:39:43.454Z,11.37
2019-02-16T07:42:12.037Z,13.97
2019-02-16T07:44:47.844Z,11.30
2019-02-16T07:47:18.492Z,10.77
2019-02-16T07:50:00.700Z,8.67
2019-02-16T07:52:33.435Z,16.30
2019-02-16T07:55:03.544Z,15.30
2019-02-16T07:57:33.844Z,14.60
2019-02-16T08:00:10.036Z,15.43
2019-02-16T08:02:42.653Z,9.70
2019-02-16T08:05:23.569Z,9.10
2019-02-16T08:07:53.756Z,9.77
2019-02-16T08:10:23.937Z,13.00
2019-02-16T08:12:57.054Z,11.63
2019-02-16T08:15:27.260Z,11.07
2019-02-16T08:18:31.848Z,14.90
2019-02-16T08:21:08.022Z,14.83
2019-02-16T08:23:41.088Z,12.10
2019-02-16T08:26:13.823Z,10.67
2019-02-16T08:28:46.924Z,11.63
2019-02-16T08:31:17.123Z,12.37
2019-02-16T08:33:56.177Z,9.63
2019-02-16T08:36:26.440Z,11.70
2019-02-16T08:38:56.642Z,14.53
2019-02-16T08:41:42.921Z,18.30
2019-02-16T08:44:13.144Z,12.63
2019-02-16T08:46:59.320Z,11.77
2019-02-16T08:49:29.509Z,14.83
2019-02-16T08:51:59.618Z,10.30
2019-02-16T08:54:32.916Z,13.23
2019-02-16T08:57:03.211Z,13.23
2019-02-16T08:59:42.169Z,9.77
2019-02-16T09:02:18.297Z,12.90
2019-02-16T09:04:57.270Z,10.67
2019-02-16T09:07:42.294Z,12.90
2019-02-16T09:10:14.833Z,10.37
2019-02-16T09:12:50.766Z,12.30
2019-02-16T09:15:45.993Z,15.67
2019-02-16T09:18:19.245Z,11.23
2019-02-16T09:20:49.349Z,11.80
2019-02-16T09:23:31.408Z,12.07
2019-02-16T09:26:19.876Z,13.47
2019-02-16T09:28:55.635Z,14.53
2019-02-16T09:31:25.832Z,13.93
2019-02-16T09:34:15.669Z,14.97
2019-02-16T09:37:04.623Z,15.43
2019-02-16T09:39:44.042Z,16.57
2019-02-16T09:42:30.560Z,15.37
2019-02-16T09:45:00.744Z,16.23
2019-02-16T09:47:33.677Z,16.57
2019-02-16T09:50:03.923Z,14.60
2019-02-16T09:52:43.383Z,13.30
2019-02-16T09:55:13.598Z,16.57
2019-02-16T09:58:02.010Z,18.07
2019-02-16T10:00:41.281Z,20.07
2019-02-16T10:03:11.512Z,19.93
2019-02-16T10:05:41.710Z,17.73
2019-02-16T10:08:28.418Z,15.30
2019-02-16T10:11:16.960Z,15.27
2019-02-16T10:13:50.013Z,13.17
2019-02-16T10:16:23.111Z,16.20
2019-02-16T10:18:53.448Z,17.70
2019-02-16T10:21:49.024Z,13.63
2019-02-16T10:24:27.834Z,13.87
2019-02-16T10:27:00.974Z,13.17
2019-02-16T10:29:47.833Z,12.73
2019-02-16T10:32:34.474Z,13.83
2019-02-16T10:35:04.797Z,11.10
2019-02-16T10:37:40.597Z,14.40
2019-02-16T10:40:10.815Z,13.80
2019-02-16T10:42:52.691Z,16.40
2019-02-16T10:45:22.890Z,16.17
2019-02-16T10:47:53.362Z,11.80
2019-02-16T10:50:32.760Z,11.20
2019-02-16T10:53:12.239Z,11.83
2019-02-16T10:55:58.700Z,13.90
2019-02-16T10:58:28.895Z,12.13
2019-02-16T11:01:02.013Z,16.37
2019-02-16T11:03:38.126Z,16.57
2019-02-16T11:06:11.085Z,17.27
2019-02-16T11:08:41.265Z,17.50
2019-02-16T11:11:14.132Z,17.10
2019-02-16T11:13:50.099Z,16.60
2019-02-16T11:16:20.888Z,14.80
2019-02-16T11:19:26.440Z,15.13
2019-02-16T11:21:56.760Z,16.53
2019-02-16T11:24:42.897Z,14.13
2019-02-16T11:27:29.689Z,17.03
2019-02-16T11:30:08.783Z,14.10
2019-02-16T11:32:53.897Z,15.07
2019-02-16T11:35:24.329Z,15.30
2019-02-16T11:37:54.652Z,12.83
2019-02-16T11:40:30.915Z,14.07
2019-02-16T11:43:03.794Z,13.73
2019-02-16T11:45:36.793Z,16.47
2019-02-16T11:48:12.945Z,14.00
2019-02-16T11:50:52.197Z,15.33
2019-02-16T11:53:34.449Z,19.63
2019-02-16T11:56:16.858Z,13.80
2019-02-16T11:59:22.711Z,12.43
2019-02-16T12:01:53.311Z,11.17
2019-02-16T12:04:29.121Z,10.47
2019-02-16T12:07:08.420Z,11.57
2019-02-16T12:09:53.959Z,12.37
2019-02-16T12:12:24.178Z,7.90
2019-02-16T12:15:10.605Z,9.87
2019-02-16T12:17:49.758Z,5.70
2019-02-16T12:20:19.945Z,6.80
2019-02-16T12:22:50.157Z,6.60
2019-02-16T12:25:26.557Z,9.77
2019-02-16T12:28:05.856Z,7.70
2019-02-16T12:30:42.641Z,10.83
2019-02-16T12:33:15.256Z,10.50
2019-02-16T12:35:51.252Z,9.87
2019-02-16T12:38:21.441Z,11.37
2019-02-16T12:41:03.912Z,9.13
2019-02-16T12:43:34.260Z,11.73
2019-02-16T12:46:13.158Z,14.93
2019-02-16T12:48:52.450Z,10.97
2019-02-16T12:51:39.134Z,10.27
2019-02-16T12:54:21.403Z,11.50
2019-02-16T12:56:51.573Z,12.73
2019-02-16T12:59:21.902Z,8.93
2019-02-16T13:01:55.117Z,6.73
2019-02-16T13:04:25.364Z,8.10
2019-02-16T13:07:05.120Z,9.27
2019-02-16T13:09:51.843Z,8.77
2019-02-16T13:12:27.934Z,5.20
2019-02-16T13:15:14.531Z,5.53
2019-02-16T13:17:59.759Z,5.63
2019-02-16T13:20:30.274Z,9.00
2019-02-16T13:23:02.821Z,6.53
2019-02-16T13:25:32.969Z,4.63
2019-02-16T13:28:21.163Z,6.77
2019-02-16T13:30:51.475Z,4.87
2019-02-16T13:33:30.564Z,4.57
2019-02-16T13:36:00.804Z,4.87
2019-02-16T13:38:47.581Z,4.63
2019-02-16T13:41:18.030Z,4.40
2019-02-16T13:44:01.583Z,5.23
2019-02-16T13:46:40.475Z,4.30
2019-02-16T13:49:10.736Z,4.50
2019-02-16T13:51:41.040Z,4.33
2019-02-16T13:54:26.030Z,5.33
2019-02-16T13:57:05.307Z,5.77
2019-02-16T13:59:47.054Z,4.70
2019-02-16T14:02:32.107Z,6.07
2019-02-16T14:05:02.623Z,4.97
2019-02-16T14:07:41.525Z,4.87
2019-02-16T14:10:11.773Z,4.33
2019-02-16T14:12:41.933Z,7.47
2019-02-16T14:15:17.989Z,5.60
2019-02-16T14:18:06.037Z,4.40
2019-02-16T14:20:34.722Z,5.80
2019-02-16T14:23:03.250Z,3.90
2019-02-16T14:25:42.716Z,5.40
2019-02-16T14:28:06.269Z,6.40
2019-02-16T14:30:34.973Z,7.00
2019-02-16T14:33:03.632Z,5.60
2019-02-16T14:35:34.865Z,5.00
2019-02-16T14:38:21.577Z,8.77
2019-02-16T14:40:50.179Z,7.73
2019-02-16T14:43:19.003Z,5.17
2019-02-16T14:45:47.800Z,5.03
2019-02-16T14:48:16.497Z,9.83
2019-02-16T14:50:45.087Z,4.97
2019-02-16T14:53:13.649Z,9.67
2019-02-16T14:55:42.212Z,5.90
2019-02-16T14:58:10.781Z,4.43
2019-02-16T15:00:39.451Z,7.43
2019-02-16T15:03:08.051Z,8.00
2019-02-16T15:05:36.941Z,6.03
2019-02-16T15:08:05.738Z,5.97
2019-02-16T15:10:34.285Z,7.60
2019-02-16T15:13:02.812Z,7.33
2019-02-16T15:15:32.167Z,7.07
2019-02-16T15:18:03.870Z,8.90
2019-02-16T15:20:32.775Z,7.17
2019-02-16T15:23:01.357Z,5.13
2019-02-16T15:25:30.028Z,7.20
2019-02-16T15:28:18.015Z,5.20
2019-02-16T15:30:46.741Z,5.53
2019-02-16T15:33:15.254Z,5.47
2019-02-16T15:35:44.818Z,6.03
2019-02-16T15:38:13.472Z,5.10
2019-02-16T15:40:42.201Z,6.97
2019-02-16T15:43:10.762Z,6.73
2019-02-16T15:45:39.755Z,7.10
2019-02-16T15:48:08.499Z,5.70
2019-02-16T15:50:37.144Z,5.90
2019-02-16T15:53:05.742Z,5.80
2019-02-16T15:55:34.290Z,6.60
2019-02-16T15:58:02.883Z,5.33
2019-02-16T16:00:31.462Z,9.37
2019-02-16T16:03:00.033Z,10.87
2019-02-16T16:05:28.918Z,13.07
2019-02-16T16:08:08.363Z,9.03
2019-02-16T16:10:46.780Z,8.70
2019-02-16T16:13:29.054Z,9.60
2019-02-16T16:18:51.553Z,20.87
2019-02-16T16:21:33.669Z,13.53
2019-02-16T16:24:04.073Z,12.07
2019-02-16T16:26:40.572Z,11.73
2019-02-16T16:29:16.721Z,15.13
2019-02-16T16:31:59.179Z,13.93
2019-02-16T16:34:29.861Z,12.20
2019-02-16T16:37:09.050Z,12.37
2019-02-16T16:39:39.192Z,18.27
2019-02-16T16:42:11.869Z,10.60
2019-02-16T16:44:51.020Z,23.50
2019-02-16T16:47:33.515Z,19.30
2019-02-16T16:50:04.209Z,16.93
2019-02-16T16:52:40.375Z,19.07
2019-02-16T16:55:13.401Z,15.90
2019-02-16T16:57:50.250Z,20.57
2019-02-16T17:00:29.307Z,15.50
2019-02-16T17:02:59.610Z,23.50
2019-02-16T17:05:45.054Z,27.00
2019-02-16T17:08:15.460Z,23.70
2019-02-16T17:10:54.496Z,26.70
2019-02-16T17:13:33.437Z,24.77
2019-02-16T17:16:03.726Z,27.73
2019-02-16T17:18:45.796Z,27.97
2019-02-16T17:21:18.907Z,26.33
2019-02-16T17:23:51.702Z,18.17
2019-02-16T17:26:24.942Z,28.93
2019-02-16T17:29:09.826Z,26.43
2019-02-16T17:31:42.842Z,22.90
2019-02-16T17:34:13.197Z,24.20
2019-02-16T17:36:43.443Z,18.03
2019-02-16T17:39:13.694Z,18.07
2019-02-16T17:41:51.388Z,18.97
2019-02-16T17:44:21.675Z,18.03
2019-02-16T17:47:10.342Z,16.03
2019-02-16T17:49:40.749Z,25.97
2019-02-16T17:52:11.036Z,25.87
2019-02-16T17:54:41.237Z,20.93
2019-02-16T17:57:11.526Z,18.90
2019-02-16T17:59:41.825Z,22.07
2019-02-16T18:02:27.937Z,21.63
2019-02-16T18:04:58.138Z,22.33
2019-02-16T18:07:46.133Z,24.40
2019-02-16T18:10:31.533Z,21.93
2019-02-16T18:13:04.376Z,32.97
2019-02-16T18:15:56.962Z,25.53
2019-02-16T18:18:27.198Z,19.77
2019-02-16T18:21:13.603Z,26.87
2019-02-16T18:23:46.470Z,25.70
2019-02-16T18:26:25.483Z,29.90
2019-02-16T18:29:13.672Z,24.23
2019-02-16T18:31:51.726Z,59.70
2019-02-16T18:34:27.916Z,60.30
2019-02-16T18:37:07.165Z,35.80
2019-02-16T18:39:43.134Z,32.37
2019-02-16T18:42:15.949Z,35.67
2019-02-16T18:44:58.128Z,30.23
2019-02-16T18:47:28.417Z,28.17
2019-02-16T18:49:58.585Z,24.40
2019-02-16T18:52:31.252Z,32.17
2019-02-16T18:55:10.821Z,45.07
2019-02-16T18:57:55.804Z,29.47
2019-02-16T19:00:26.355Z,31.20
2019-02-16T19:02:59.569Z,39.70
2019-02-16T19:05:32.293Z,30.03
2019-02-16T19:08:07.977Z,35.00
2019-02-16T19:10:50.389Z,46.90
2019-02-16T19:13:23.441Z,36.30
2019-02-16T19:16:10.906Z,29.60
2019-02-16T19:18:49.997Z,28.37
2019-02-16T19:21:22.881Z,27.47
2019-02-16T19:23:55.858Z,47.73
2019-02-16T19:26:28.585Z,65.53
2019-02-16T19:28:58.819Z,93.97
2019-02-16T19:31:29.049Z,62.17
2019-02-16T19:34:05.004Z,56.03
2019-02-16T19:36:35.173Z,43.67
2019-02-16T19:39:08.278Z,40.70
2019-02-16T19:41:54.496Z,36.80
2019-02-16T19:44:41.151Z,43.70
2019-02-16T19:47:14.315Z,37.73
2019-02-16T19:49:55.270Z,40.73
2019-02-16T19:52:53.499Z,35.43
2019-02-16T19:55:35.919Z,36.40
2019-02-16T19:58:25.254Z,33.80
2019-02-16T20:00:58.337Z,36.20
2019-02-16T20:03:44.785Z,36.00
2019-02-16T20:06:17.708Z,34.50
2019-02-16T20:08:48.007Z,34.43
2019-02-16T20:11:21.226Z,39.93
2019-02-16T20:14:03.414Z,36.57
2019-02-16T20:16:42.546Z,42.33
2019-02-16T20:19:22.818Z,49.33
2019-02-16T20:21:55.769Z,39.30
2019-02-16T20:24:42.090Z,39.07
2019-02-16T20:27:37.150Z,35.20
2019-02-16T20:30:08.060Z,61.13
2019-02-16T20:32:41.288Z,43.47
2019-02-16T20:35:14.500Z,40.60
2019-02-16T20:37:44.758Z,42.27
2019-02-16T20:40:24.050Z,33.50
2019-02-16T20:42:57.065Z,37.00
2019-02-16T20:45:36.485Z,37.97
2019-02-16T20:48:12.641Z,32.60
2019-02-16T20:50:54.841Z,32.50
2019-02-16T20:53:25.056Z,32.70
2019-02-16T20:55:55.387Z,33.40
2019-02-16T20:58:37.561Z,34.10
2019-02-16T21:01:10.853Z,36.10
2019-02-16T21:03:57.120Z,30.30
2019-02-16T21:06:36.323Z,32.67
2019-02-16T21:09:14.561Z,34.80
2019-02-16T21:11:50.734Z,31.13
2019-02-16T21:14:29.848Z,31.03
2019-02-16T21:17:00.032Z,34.23
2019-02-16T21:19:33.227Z,32.33
2019-02-16T21:22:08.685Z,31.00
2019-02-16T21:24:41.017Z,35.53
2019-02-16T21:27:11.197Z,35.57
2019-02-16T21:29:41.418Z,37.77
2019-02-16T21:32:11.640Z,37.37
2019-02-16T21:34:53.894Z,35.10
2019-02-16T21:37:42.088Z,36.33
2019-02-16T21:40:21.534Z,42.40
2019-02-16T21:42:57.883Z,44.03
2019-02-16T21:45:39.677Z,35.67
2019-02-16T21:48:24.856Z,29.03
2019-02-16T21:51:06.968Z,27.90
2019-02-16T21:53:37.293Z,28.27
2019-02-16T21:56:24.149Z,33.23
2019-02-16T21:59:18.621Z,32.30
2019-02-16T22:01:44.104Z,31.00
2019-02-16T22:04:16.086Z,36.33
2019-02-16T22:07:01.134Z,37.33
2019-02-16T22:09:37.274Z,46.27
2019-02-16T22:12:13.561Z,43.30
2019-02-16T22:14:42.039Z,41.93
2019-02-16T22:17:10.685Z,41.27
2019-02-16T22:19:39.364Z,38.97
2019-02-16T22:22:08.201Z,39.27
2019-02-16T22:24:36.904Z,40.23
2019-02-16T22:27:05.386Z,35.70
2019-02-16T22:29:33.934Z,36.33
2019-02-16T22:32:02.792Z,31.43
2019-02-16T22:34:31.308Z,35.40
2019-02-16T22:36:59.876Z,32.03
2019-02-16T22:39:28.414Z,35.57
2019-02-16T22:41:57.225Z,31.27
2019-02-16T22:44:25.746Z,35.00
2019-02-16T22:46:54.252Z,35.70
2019-02-16T22:49:23.784Z,36.33
2019-02-16T22:51:52.444Z,30.97
2019-02-16T22:54:20.972Z,32.00
2019-02-16T22:56:49.566Z,25.00
2019-02-16T22:59:18.110Z,31.63
2019-02-16T23:02:08.602Z,30.30
2019-02-16T23:04:37.966Z,32.50
2019-02-16T23:07:06.614Z,37.07
2019-02-16T23:09:35.205Z,39.50
2019-02-16T23:12:04.647Z,34.37
2019-02-16T23:14:33.492Z,34.47
2019-02-16T23:17:02.021Z,39.13
2019-02-16T23:19:30.601Z,32.83
2019-02-16T23:21:59.341Z,32.53
2019-02-16T23:24:27.932Z,32.27
2019-02-16T23:26:56.498Z,32.83
2019-02-16T23:29:25.155Z,27.87
2019-02-16T23:31:53.812Z,31.23
2019-02-16T23:34:22.396Z,27.47
2019-02-16T23:36:50.911Z,31.63
2019-02-16T23:39:19.457Z,29.90
2019-02-16T23:41:48.201Z,29.63
2019-02-16T23:44:16.708Z,32.20
2019-02-16T23:46:45.188Z,29.37
2019-02-16T23:49:14.237Z,35.63
2019-02-16T23:51:42.837Z,33.80
2019-02-16T23:54:11.380Z,32.43
2019-02-16T23:56:40.016Z,32.47
2019-02-16T23:59:08.606Z,32.80
